sensor_id;sensor_type;location;lat;lon;timestamp;temperature;humidity
18287;DHT22;9269;50.838;12.094;2022-12-11T00:01:52;3.20;58.10
18287;DHT22;9269;50.838;12.094;2022-12-11T00:04:25;3.10;57.80
18287;DHT22;9269;50.838;12.094;2022-12-11T00:06:53;3.00;58.20
18287;DHT22;9269;50.838;12.094;2022-12-11T00:09:22;3.20;58.00
18287;DHT22;9269;50.838;12.094;2022-12-11T00:11:51;3.20;58.20
18287;DHT22;9269;50.838;12.094;2022-12-11T00:14:20;3.20;58.20
18287;DHT22;9269;50.838;12.094;2022-12-11T00:16:53;3.20;58.10
18287;DHT22;9269;50.838;12.094;2022-12-11T00:19:22;3.10;58.40
18287;DHT22;9269;50.838;12.094;2022-12-11T00:21:51;2.90;58.00
18287;DHT22;9269;50.838;12.094;2022-12-11T00:24:19;3.10;58.20
18287;DHT22;9269;50.838;12.094;2022-12-11T00:26:48;3.10;58.30
18287;DHT22;9269;50.838;12.094;2022-12-11T00:29:17;3.00;58.00
18287;DHT22;9269;50.838;12.094;2022-12-11T00:31:46;3.00;58.30
18287;DHT22;9269;50.838;12.094;2022-12-11T00:34:16;3.20;57.90
18287;DHT22;9269;50.838;12.094;2022-12-11T00:36:45;3.10;57.70
18287;DHT22;9269;50.838;12.094;2022-12-11T00:39:13;3.10;57.80
18287;DHT22;9269;50.838;12.094;2022-12-11T00:41:42;3.00;58.00
18287;DHT22;9269;50.838;12.094;2022-12-11T00:44:11;2.90;57.90
18287;DHT22;9269;50.838;12.094;2022-12-11T00:46:39;2.90;57.70
18287;DHT22;9269;50.838;12.094;2022-12-11T00:49:08;2.80;57.20
18287;DHT22;9269;50.838;12.094;2022-12-11T00:51:38;3.00;57.50
18287;DHT22;9269;50.838;12.094;2022-12-11T00:54:07;3.00;57.40
18287;DHT22;9269;50.838;12.094;2022-12-11T00:56:36;2.70;57.10
18287;DHT22;9269;50.838;12.094;2022-12-11T00:59:04;2.80;57.20
18287;DHT22;9269;50.838;12.094;2022-12-11T01:01:33;2.80;57.10
18287;DHT22;9269;50.838;12.094;2022-12-11T01:04:02;2.70;57.90
18287;DHT22;9269;50.838;12.094;2022-12-11T01:06:30;2.80;57.50
18287;DHT22;9269;50.838;12.094;2022-12-11T01:09:00;2.70;57.20
18287;DHT22;9269;50.838;12.094;2022-12-11T01:11:46;2.60;57.10
18287;DHT22;9269;50.838;12.094;2022-12-11T01:14:15;2.70;57.20
18287;DHT22;9269;50.838;12.094;2022-12-11T01:16:44;2.80;57.30
18287;DHT22;9269;50.838;12.094;2022-12-11T01:19:13;2.60;57.10
18287;DHT22;9269;50.838;12.094;2022-12-11T01:21:42;2.50;57.30
18287;DHT22;9269;50.838;12.094;2022-12-11T01:24:13;2.70;57.60
18287;DHT22;9269;50.838;12.094;2022-12-11T01:26:41;2.90;57.20
18287;DHT22;9269;50.838;12.094;2022-12-11T01:29:10;2.60;57.10
18287;DHT22;9269;50.838;12.094;2022-12-11T01:31:39;2.70;57.10
18287;DHT22;9269;50.838;12.094;2022-12-11T01:34:09;2.60;56.80
18287;DHT22;9269;50.838;12.094;2022-12-11T01:36:38;2.70;57.30
18287;DHT22;9269;50.838;12.094;2022-12-11T01:39:07;2.70;57.50
18287;DHT22;9269;50.838;12.094;2022-12-11T01:41:39;2.70;57.20
18287;DHT22;9269;50.838;12.094;2022-12-11T01:47:12;2.70;57.00
18287;DHT22;9269;50.838;12.094;2022-12-11T01:49:41;2.90;56.90
18287;DHT22;9269;50.838;12.094;2022-12-11T01:52:15;2.70;57.10
18287;DHT22;9269;50.838;12.094;2022-12-11T01:54:49;2.80;56.90
18287;DHT22;9269;50.838;12.094;2022-12-11T01:57:20;2.80;56.90
18287;DHT22;9269;50.838;12.094;2022-12-11T01:59:51;2.80;56.80
18287;DHT22;9269;50.838;12.094;2022-12-11T02:02:22;2.70;56.90
18287;DHT22;9269;50.838;12.094;2022-12-11T02:04:53;2.70;56.90
18287;DHT22;9269;50.838;12.094;2022-12-11T02:07:23;2.70;57.20
18287;DHT22;9269;50.838;12.094;2022-12-11T02:09:53;2.60;56.80
18287;DHT22;9269;50.838;12.094;2022-12-11T02:12:30;2.70;56.50
18287;DHT22;9269;50.838;12.094;2022-12-11T02:15:06;2.70;56.60
18287;DHT22;9269;50.838;12.094;2022-12-11T02:17:41;2.80;57.10
18287;DHT22;9269;50.838;12.094;2022-12-11T02:20:16;2.70;56.90
18287;DHT22;9269;50.838;12.094;2022-12-11T02:23:08;2.80;56.90
18287;DHT22;9269;50.838;12.094;2022-12-11T02:25:47;2.70;56.80
18287;DHT22;9269;50.838;12.094;2022-12-11T02:28:23;2.70;56.80
18287;DHT22;9269;50.838;12.094;2022-12-11T02:30:59;2.90;57.00
18287;DHT22;9269;50.838;12.094;2022-12-11T02:33:35;2.70;57.00
18287;DHT22;9269;50.838;12.094;2022-12-11T02:36:08;2.70;57.10
18287;DHT22;9269;50.838;12.094;2022-12-11T02:38:40;2.70;56.80
18287;DHT22;9269;50.838;12.094;2022-12-11T02:41:10;2.70;57.20
18287;DHT22;9269;50.838;12.094;2022-12-11T02:43:41;2.80;56.90
18287;DHT22;9269;50.838;12.094;2022-12-11T02:46:11;2.80;56.70
18287;DHT22;9269;50.838;12.094;2022-12-11T02:48:42;2.70;57.00
18287;DHT22;9269;50.838;12.094;2022-12-11T02:51:13;2.70;56.90
18287;DHT22;9269;50.838;12.094;2022-12-11T02:53:44;2.70;57.00
18287;DHT22;9269;50.838;12.094;2022-12-11T02:56:18;2.60;57.10
18287;DHT22;9269;50.838;12.094;2022-12-11T02:58:54;2.70;56.80
18287;DHT22;9269;50.838;12.094;2022-12-11T03:01:25;2.70;56.90
18287;DHT22;9269;50.838;12.094;2022-12-11T03:03:54;2.80;56.60
18287;DHT22;9269;50.838;12.094;2022-12-11T03:06:29;2.50;56.70
18287;DHT22;9269;50.838;12.094;2022-12-11T03:08:59;2.60;56.70
18287;DHT22;9269;50.838;12.094;2022-12-11T03:11:27;2.50;56.70
18287;DHT22;9269;50.838;12.094;2022-12-11T03:13:58;2.70;56.70
18287;DHT22;9269;50.838;12.094;2022-12-11T03:16:32;2.60;56.50
18287;DHT22;9269;50.838;12.094;2022-12-11T03:19:09;2.70;56.60
18287;DHT22;9269;50.838;12.094;2022-12-11T03:21:44;2.70;56.50
18287;DHT22;9269;50.838;12.094;2022-12-11T03:24:17;2.80;56.60
18287;DHT22;9269;50.838;12.094;2022-12-11T03:26:52;2.60;56.60
18287;DHT22;9269;50.838;12.094;2022-12-11T03:29:27;2.70;56.80
18287;DHT22;9269;50.838;12.094;2022-12-11T03:31:59;2.50;56.70
18287;DHT22;9269;50.838;12.094;2022-12-11T03:34:34;2.60;55.90
18287;DHT22;9269;50.838;12.094;2022-12-11T03:37:06;2.70;56.50
18287;DHT22;9269;50.838;12.094;2022-12-11T03:39:39;2.60;56.50
18287;DHT22;9269;50.838;12.094;2022-12-11T03:42:11;2.60;56.20
18287;DHT22;9269;50.838;12.094;2022-12-11T03:44:45;2.70;56.60
18287;DHT22;9269;50.838;12.094;2022-12-11T03:47:18;2.70;56.50
18287;DHT22;9269;50.838;12.094;2022-12-11T03:49:49;2.50;56.20
18287;DHT22;9269;50.838;12.094;2022-12-11T03:52:19;2.60;56.30
18287;DHT22;9269;50.838;12.094;2022-12-11T03:54:49;2.50;56.10
18287;DHT22;9269;50.838;12.094;2022-12-11T03:57:21;2.60;56.50
18287;DHT22;9269;50.838;12.094;2022-12-11T03:59:52;2.50;56.30
18287;DHT22;9269;50.838;12.094;2022-12-11T04:02:20;2.60;56.30
18287;DHT22;9269;50.838;12.094;2022-12-11T04:04:51;2.50;56.20
18287;DHT22;9269;50.838;12.094;2022-12-11T04:07:19;2.70;56.10
18287;DHT22;9269;50.838;12.094;2022-12-11T04:09:48;2.50;56.10
18287;DHT22;9269;50.838;12.094;2022-12-11T04:12:17;2.60;56.10
18287;DHT22;9269;50.838;12.094;2022-12-11T04:14:45;2.80;56.20
18287;DHT22;9269;50.838;12.094;2022-12-11T04:17:32;2.70;56.30
18287;DHT22;9269;50.838;12.094;2022-12-11T04:20:19;2.70;56.30
18287;DHT22;9269;50.838;12.094;2022-12-11T04:23:08;2.70;56.20
18287;DHT22;9269;50.838;12.094;2022-12-11T04:26:06;2.60;56.00
18287;DHT22;9269;50.838;12.094;2022-12-11T04:28:34;2.60;56.20
18287;DHT22;9269;50.838;12.094;2022-12-11T04:31:03;2.60;56.10
18287;DHT22;9269;50.838;12.094;2022-12-11T04:33:34;2.60;56.30
18287;DHT22;9269;50.838;12.094;2022-12-11T04:36:03;2.70;56.10
18287;DHT22;9269;50.838;12.094;2022-12-11T04:38:31;2.50;56.20
18287;DHT22;9269;50.838;12.094;2022-12-11T04:41:01;2.60;55.90
18287;DHT22;9269;50.838;12.094;2022-12-11T04:43:30;2.60;55.80
18287;DHT22;9269;50.838;12.094;2022-12-11T04:46:03;2.80;55.90
18287;DHT22;9269;50.838;12.094;2022-12-11T04:48:34;2.70;55.90
18287;DHT22;9269;50.838;12.094;2022-12-11T04:51:03;2.60;55.90
18287;DHT22;9269;50.838;12.094;2022-12-11T04:53:32;2.50;56.00
18287;DHT22;9269;50.838;12.094;2022-12-11T04:56:00;2.70;56.00
18287;DHT22;9269;50.838;12.094;2022-12-11T04:58:29;2.80;56.00
18287;DHT22;9269;50.838;12.094;2022-12-11T05:00:57;2.80;55.70
18287;DHT22;9269;50.838;12.094;2022-12-11T05:03:26;2.60;55.70
18287;DHT22;9269;50.838;12.094;2022-12-11T05:05:56;2.60;55.80
18287;DHT22;9269;50.838;12.094;2022-12-11T05:08:24;2.60;55.60
18287;DHT22;9269;50.838;12.094;2022-12-11T05:10:56;2.60;55.60
18287;DHT22;9269;50.838;12.094;2022-12-11T05:13:26;2.70;55.30
18287;DHT22;9269;50.838;12.094;2022-12-11T05:15:55;2.60;55.60
18287;DHT22;9269;50.838;12.094;2022-12-11T05:18:25;2.70;55.20
18287;DHT22;9269;50.838;12.094;2022-12-11T05:20:59;2.70;55.70
18287;DHT22;9269;50.838;12.094;2022-12-11T05:23:28;2.60;55.80
18287;DHT22;9269;50.838;12.094;2022-12-11T05:25:58;2.60;56.00
18287;DHT22;9269;50.838;12.094;2022-12-11T05:28:32;2.80;55.30
18287;DHT22;9269;50.838;12.094;2022-12-11T05:31:03;2.70;55.30
18287;DHT22;9269;50.838;12.094;2022-12-11T05:33:32;2.80;55.80
18287;DHT22;9269;50.838;12.094;2022-12-11T05:36:06;2.70;55.50
18287;DHT22;9269;50.838;12.094;2022-12-11T05:38:35;2.60;55.40
18287;DHT22;9269;50.838;12.094;2022-12-11T05:41:04;2.60;55.50
18287;DHT22;9269;50.838;12.094;2022-12-11T05:43:35;2.80;55.70
18287;DHT22;9269;50.838;12.094;2022-12-11T05:46:05;2.70;55.50
18287;DHT22;9269;50.838;12.094;2022-12-11T05:48:35;2.70;55.60
18287;DHT22;9269;50.838;12.094;2022-12-11T05:51:06;2.60;55.40
18287;DHT22;9269;50.838;12.094;2022-12-11T05:53:36;2.90;55.90
18287;DHT22;9269;50.838;12.094;2022-12-11T05:56:07;2.70;55.60
18287;DHT22;9269;50.838;12.094;2022-12-11T05:58:36;2.60;55.50
18287;DHT22;9269;50.838;12.094;2022-12-11T06:01:07;2.70;55.70
18287;DHT22;9269;50.838;12.094;2022-12-11T06:03:35;2.50;55.50
18287;DHT22;9269;50.838;12.094;2022-12-11T06:06:06;2.60;55.60
18287;DHT22;9269;50.838;12.094;2022-12-11T06:08:38;2.60;55.60
18287;DHT22;9269;50.838;12.094;2022-12-11T06:11:07;2.60;55.40
18287;DHT22;9269;50.838;12.094;2022-12-11T06:13:36;2.50;55.50
18287;DHT22;9269;50.838;12.094;2022-12-11T06:16:06;2.70;55.60
18287;DHT22;9269;50.838;12.094;2022-12-11T06:18:36;2.60;55.40
18287;DHT22;9269;50.838;12.094;2022-12-11T06:21:13;2.80;55.40
18287;DHT22;9269;50.838;12.094;2022-12-11T06:23:44;2.60;55.30
18287;DHT22;9269;50.838;12.094;2022-12-11T06:26:13;2.70;55.70
18287;DHT22;9269;50.838;12.094;2022-12-11T06:28:42;2.70;55.40
18287;DHT22;9269;50.838;12.094;2022-12-11T06:31:12;2.60;55.70
18287;DHT22;9269;50.838;12.094;2022-12-11T06:33:42;2.60;55.40
18287;DHT22;9269;50.838;12.094;2022-12-11T06:36:15;2.50;55.30
18287;DHT22;9269;50.838;12.094;2022-12-11T06:38:44;2.70;55.30
18287;DHT22;9269;50.838;12.094;2022-12-11T06:41:14;2.50;55.30
18287;DHT22;9269;50.838;12.094;2022-12-11T06:43:42;2.70;55.40
18287;DHT22;9269;50.838;12.094;2022-12-11T06:46:12;2.60;55.60
18287;DHT22;9269;50.838;12.094;2022-12-11T06:48:42;2.60;55.10
18287;DHT22;9269;50.838;12.094;2022-12-11T06:51:14;2.70;55.40
18287;DHT22;9269;50.838;12.094;2022-12-11T06:53:44;2.60;55.30
18287;DHT22;9269;50.838;12.094;2022-12-11T06:56:14;2.70;55.30
18287;DHT22;9269;50.838;12.094;2022-12-11T06:58:42;2.40;55.50
18287;DHT22;9269;50.838;12.094;2022-12-11T07:01:16;2.70;55.20
18287;DHT22;9269;50.838;12.094;2022-12-11T07:03:45;2.80;55.50
18287;DHT22;9269;50.838;12.094;2022-12-11T07:06:15;2.50;55.30
18287;DHT22;9269;50.838;12.094;2022-12-11T07:08:44;2.70;55.30
18287;DHT22;9269;50.838;12.094;2022-12-11T07:11:18;2.50;55.30
18287;DHT22;9269;50.838;12.094;2022-12-11T07:13:47;2.50;55.40
18287;DHT22;9269;50.838;12.094;2022-12-11T07:16:16;2.60;55.20
18287;DHT22;9269;50.838;12.094;2022-12-11T07:18:47;2.70;55.50
18287;DHT22;9269;50.838;12.094;2022-12-11T07:21:18;2.80;55.50
18287;DHT22;9269;50.838;12.094;2022-12-11T07:23:48;2.60;55.40
18287;DHT22;9269;50.838;12.094;2022-12-11T07:26:19;2.60;55.70
18287;DHT22;9269;50.838;12.094;2022-12-11T07:28:48;2.60;55.50
18287;DHT22;9269;50.838;12.094;2022-12-11T07:31:18;2.60;55.40
18287;DHT22;9269;50.838;12.094;2022-12-11T07:33:52;2.60;55.50
18287;DHT22;9269;50.838;12.094;2022-12-11T07:36:22;2.60;55.40
18287;DHT22;9269;50.838;12.094;2022-12-11T07:38:51;2.70;55.40
18287;DHT22;9269;50.838;12.094;2022-12-11T07:41:20;2.60;55.30
18287;DHT22;9269;50.838;12.094;2022-12-11T07:43:49;2.70;55.30
18287;DHT22;9269;50.838;12.094;2022-12-11T07:46:20;2.70;55.50
18287;DHT22;9269;50.838;12.094;2022-12-11T07:48:49;2.60;55.30
18287;DHT22;9269;50.838;12.094;2022-12-11T07:51:19;2.70;55.30
18287;DHT22;9269;50.838;12.094;2022-12-11T07:53:50;2.60;55.40
18287;DHT22;9269;50.838;12.094;2022-12-11T07:56:20;2.70;55.10
18287;DHT22;9269;50.838;12.094;2022-12-11T07:58:48;2.50;55.30
18287;DHT22;9269;50.838;12.094;2022-12-11T08:01:19;2.50;55.30
18287;DHT22;9269;50.838;12.094;2022-12-11T08:03:48;2.50;55.50
18287;DHT22;9269;50.838;12.094;2022-12-11T08:06:18;2.60;55.40
18287;DHT22;9269;50.838;12.094;2022-12-11T08:08:49;2.50;55.30
18287;DHT22;9269;50.838;12.094;2022-12-11T08:11:18;2.50;55.40
18287;DHT22;9269;50.838;12.094;2022-12-11T08:13:46;2.80;55.40
18287;DHT22;9269;50.838;12.094;2022-12-11T08:16:16;2.60;55.10
18287;DHT22;9269;50.838;12.094;2022-12-11T08:18:45;2.60;55.90
18287;DHT22;9269;50.838;12.094;2022-12-11T08:21:16;2.50;55.50
18287;DHT22;9269;50.838;12.094;2022-12-11T08:23:46;2.40;55.50
18287;DHT22;9269;50.838;12.094;2022-12-11T08:26:19;2.40;55.60
18287;DHT22;9269;50.838;12.094;2022-12-11T08:28:48;2.60;55.40
18287;DHT22;9269;50.838;12.094;2022-12-11T08:31:17;2.60;55.60
18287;DHT22;9269;50.838;12.094;2022-12-11T08:33:47;2.70;55.40
18287;DHT22;9269;50.838;12.094;2022-12-11T08:36:17;2.60;55.20
18287;DHT22;9269;50.838;12.094;2022-12-11T08:38:47;2.70;55.50
18287;DHT22;9269;50.838;12.094;2022-12-11T08:41:19;2.80;55.30
18287;DHT22;9269;50.838;12.094;2022-12-11T08:43:48;2.70;55.60
18287;DHT22;9269;50.838;12.094;2022-12-11T08:46:22;2.50;55.50
18287;DHT22;9269;50.838;12.094;2022-12-11T08:48:52;2.60;55.20
18287;DHT22;9269;50.838;12.094;2022-12-11T08:51:23;2.70;55.60
18287;DHT22;9269;50.838;12.094;2022-12-11T08:53:53;2.60;55.40
18287;DHT22;9269;50.838;12.094;2022-12-11T08:56:24;2.60;55.20
18287;DHT22;9269;50.838;12.094;2022-12-11T08:58:53;2.60;55.20
18287;DHT22;9269;50.838;12.094;2022-12-11T09:01:23;2.70;55.20
18287;DHT22;9269;50.838;12.094;2022-12-11T09:03:54;2.60;55.40
18287;DHT22;9269;50.838;12.094;2022-12-11T09:06:26;2.50;55.00
18287;DHT22;9269;50.838;12.094;2022-12-11T09:08:57;2.60;55.40
18287;DHT22;9269;50.838;12.094;2022-12-11T09:11:29;2.70;55.20
18287;DHT22;9269;50.838;12.094;2022-12-11T09:13:58;2.50;54.90
18287;DHT22;9269;50.838;12.094;2022-12-11T09:16:34;2.70;55.30
18287;DHT22;9269;50.838;12.094;2022-12-11T09:19:07;2.70;55.30
18287;DHT22;9269;50.838;12.094;2022-12-11T09:21:39;2.80;55.20
18287;DHT22;9269;50.838;12.094;2022-12-11T09:24:09;2.80;55.40
18287;DHT22;9269;50.838;12.094;2022-12-11T09:26:39;2.80;55.20
18287;DHT22;9269;50.838;12.094;2022-12-11T09:29:07;2.80;55.50
18287;DHT22;9269;50.838;12.094;2022-12-11T09:31:36;2.70;55.50
18287;DHT22;9269;50.838;12.094;2022-12-11T09:34:07;2.80;55.00
18287;DHT22;9269;50.838;12.094;2022-12-11T09:36:39;2.80;55.30
18287;DHT22;9269;50.838;12.094;2022-12-11T09:39:10;2.80;55.50
18287;DHT22;9269;50.838;12.094;2022-12-11T09:41:47;2.80;55.40
18287;DHT22;9269;50.838;12.094;2022-12-11T09:44:31;2.90;55.20
18287;DHT22;9269;50.838;12.094;2022-12-11T09:47:02;2.70;55.30
18287;DHT22;9269;50.838;12.094;2022-12-11T09:49:37;2.80;55.60
18287;DHT22;9269;50.838;12.094;2022-12-11T09:52:10;2.80;55.30
18287;DHT22;9269;50.838;12.094;2022-12-11T09:54:43;3.10;55.50
18287;DHT22;9269;50.838;12.094;2022-12-11T09:57:21;2.90;55.30
18287;DHT22;9269;50.838;12.094;2022-12-11T10:00:11;2.80;55.50
18287;DHT22;9269;50.838;12.094;2022-12-11T10:05:39;2.90;55.10
18287;DHT22;9269;50.838;12.094;2022-12-11T10:08:16;2.90;55.10
18287;DHT22;9269;50.838;12.094;2022-12-11T10:10:53;2.80;55.00
18287;DHT22;9269;50.838;12.094;2022-12-11T10:13:29;2.80;54.80
18287;DHT22;9269;50.838;12.094;2022-12-11T10:16:07;2.90;54.90
18287;DHT22;9269;50.838;12.094;2022-12-11T10:18:40;2.70;55.00
18287;DHT22;9269;50.838;12.094;2022-12-11T10:21:10;2.80;54.20
18287;DHT22;9269;50.838;12.094;2022-12-11T10:23:52;2.80;53.60
18287;DHT22;9269;50.838;12.094;2022-12-11T10:26:23;2.90;53.10
18287;DHT22;9269;50.838;12.094;2022-12-11T10:28:58;2.70;53.40
18287;DHT22;9269;50.838;12.094;2022-12-11T10:31:33;2.70;53.70
18287;DHT22;9269;50.838;12.094;2022-12-11T10:34:10;2.60;53.60
18287;DHT22;9269;50.838;12.094;2022-12-11T10:36:41;2.80;53.70
18287;DHT22;9269;50.838;12.094;2022-12-11T10:39:14;2.70;53.60
18287;DHT22;9269;50.838;12.094;2022-12-11T10:41:46;2.60;53.10
18287;DHT22;9269;50.838;12.094;2022-12-11T10:44:21;2.70;53.10
18287;DHT22;9269;50.838;12.094;2022-12-11T10:47:02;2.50;52.80
18287;DHT22;9269;50.838;12.094;2022-12-11T10:49:32;2.60;53.00
18287;DHT22;9269;50.838;12.094;2022-12-11T10:52:08;2.50;53.10
18287;DHT22;9269;50.838;12.094;2022-12-11T10:54:39;2.60;52.80
18287;DHT22;9269;50.838;12.094;2022-12-11T10:57:10;2.70;52.60
18287;DHT22;9269;50.838;12.094;2022-12-11T10:59:45;2.70;52.70
18287;DHT22;9269;50.838;12.094;2022-12-11T11:02:20;2.60;53.10
18287;DHT22;9269;50.838;12.094;2022-12-11T11:04:50;2.60;52.70
18287;DHT22;9269;50.838;12.094;2022-12-11T11:07:22;2.60;52.60
18287;DHT22;9269;50.838;12.094;2022-12-11T11:10:04;2.70;52.80
18287;DHT22;9269;50.838;12.094;2022-12-11T11:12:37;2.60;52.80
18287;DHT22;9269;50.838;12.094;2022-12-11T11:15:12;2.60;52.60
18287;DHT22;9269;50.838;12.094;2022-12-11T11:17:44;2.60;52.90
18287;DHT22;9269;50.838;12.094;2022-12-11T11:20:24;2.60;52.90
18287;DHT22;9269;50.838;12.094;2022-12-11T11:22:55;2.50;53.30
18287;DHT22;9269;50.838;12.094;2022-12-11T11:25:26;2.60;53.20
18287;DHT22;9269;50.838;12.094;2022-12-11T11:27:59;2.70;53.10
18287;DHT22;9269;50.838;12.094;2022-12-11T11:30:33;2.80;53.10
18287;DHT22;9269;50.838;12.094;2022-12-11T11:33:04;2.70;53.10
18287;DHT22;9269;50.838;12.094;2022-12-11T11:35:49;2.70;53.20
18287;DHT22;9269;50.838;12.094;2022-12-11T11:38:21;2.80;53.10
18287;DHT22;9269;50.838;12.094;2022-12-11T11:40:53;2.70;52.90
18287;DHT22;9269;50.838;12.094;2022-12-11T11:43:35;2.70;53.00
18287;DHT22;9269;50.838;12.094;2022-12-11T11:46:12;2.60;52.70
18287;DHT22;9269;50.838;12.094;2022-12-11T11:48:48;2.70;53.30
18287;DHT22;9269;50.838;12.094;2022-12-11T11:51:22;2.80;53.10
18287;DHT22;9269;50.838;12.094;2022-12-11T11:53:54;2.60;53.50
18287;DHT22;9269;50.838;12.094;2022-12-11T11:56:26;2.60;53.40
18287;DHT22;9269;50.838;12.094;2022-12-11T11:59:02;2.70;53.70
18287;DHT22;9269;50.838;12.094;2022-12-11T12:01:35;2.70;53.90
18287;DHT22;9269;50.838;12.094;2022-12-11T12:04:04;2.70;53.50
18287;DHT22;9269;50.838;12.094;2022-12-11T12:06:44;2.80;53.60
18287;DHT22;9269;50.838;12.094;2022-12-11T12:09:28;2.80;53.70
18287;DHT22;9269;50.838;12.094;2022-12-11T12:12:11;2.70;53.50
18287;DHT22;9269;50.838;12.094;2022-12-11T12:15:07;2.90;53.60
18287;DHT22;9269;50.838;12.094;2022-12-11T12:17:47;3.00;53.40
18287;DHT22;9269;50.838;12.094;2022-12-11T12:20:36;2.60;53.40
18287;DHT22;9269;50.838;12.094;2022-12-11T12:23:23;2.80;53.60
18287;DHT22;9269;50.838;12.094;2022-12-11T12:26:02;2.90;53.50
18287;DHT22;9269;50.838;12.094;2022-12-11T12:28:40;2.80;53.50
18287;DHT22;9269;50.838;12.094;2022-12-11T12:31:24;2.80;53.50
18287;DHT22;9269;50.838;12.094;2022-12-11T12:34:05;3.00;53.40
18287;DHT22;9269;50.838;12.094;2022-12-11T12:36:44;2.90;53.60
18287;DHT22;9269;50.838;12.094;2022-12-11T12:39:24;2.90;53.60
18287;DHT22;9269;50.838;12.094;2022-12-11T12:41:58;2.70;53.30
18287;DHT22;9269;50.838;12.094;2022-12-11T12:44:40;2.70;53.40
18287;DHT22;9269;50.838;12.094;2022-12-11T12:47:15;2.90;53.60
18287;DHT22;9269;50.838;12.094;2022-12-11T12:49:47;2.80;53.30
18287;DHT22;9269;50.838;12.094;2022-12-11T12:52:18;2.90;53.40
18287;DHT22;9269;50.838;12.094;2022-12-11T12:54:53;2.70;53.70
18287;DHT22;9269;50.838;12.094;2022-12-11T12:57:45;2.70;53.80
18287;DHT22;9269;50.838;12.094;2022-12-11T13:00:28;2.80;53.70
18287;DHT22;9269;50.838;12.094;2022-12-11T13:02:57;3.10;53.80
18287;DHT22;9269;50.838;12.094;2022-12-11T13:05:31;2.70;53.60
18287;DHT22;9269;50.838;12.094;2022-12-11T13:08:02;2.90;53.60
18287;DHT22;9269;50.838;12.094;2022-12-11T13:10:33;2.80;53.50
18287;DHT22;9269;50.838;12.094;2022-12-11T13:13:04;2.80;53.40
18287;DHT22;9269;50.838;12.094;2022-12-11T13:15:36;2.70;53.50
18287;DHT22;9269;50.838;12.094;2022-12-11T13:18:32;2.90;53.70
18287;DHT22;9269;50.838;12.094;2022-12-11T13:23:47;2.70;53.40
18287;DHT22;9269;50.838;12.094;2022-12-11T13:26:27;2.60;53.40
18287;DHT22;9269;50.838;12.094;2022-12-11T13:28:56;2.60;53.90
18287;DHT22;9269;50.838;12.094;2022-12-11T13:31:33;2.70;53.80
18287;DHT22;9269;50.838;12.094;2022-12-11T13:34:13;2.50;53.50
18287;DHT22;9269;50.838;12.094;2022-12-11T13:36:47;2.50;53.80
18287;DHT22;9269;50.838;12.094;2022-12-11T13:39:18;2.60;53.40
18287;DHT22;9269;50.838;12.094;2022-12-11T13:41:52;2.80;53.50
18287;DHT22;9269;50.838;12.094;2022-12-11T13:44:25;2.80;53.40
18287;DHT22;9269;50.838;12.094;2022-12-11T13:46:55;2.70;53.30
18287;DHT22;9269;50.838;12.094;2022-12-11T13:49:27;2.60;53.20
18287;DHT22;9269;50.838;12.094;2022-12-11T13:51:59;2.70;53.30
18287;DHT22;9269;50.838;12.094;2022-12-11T13:54:29;2.50;53.30
18287;DHT22;9269;50.838;12.094;2022-12-11T13:57:01;2.60;53.40
18287;DHT22;9269;50.838;12.094;2022-12-11T13:59:33;2.50;53.40
18287;DHT22;9269;50.838;12.094;2022-12-11T14:02:06;2.50;53.30
18287;DHT22;9269;50.838;12.094;2022-12-11T14:04:39;2.30;53.40
18287;DHT22;9269;50.838;12.094;2022-12-11T14:07:10;2.50;53.30
18287;DHT22;9269;50.838;12.094;2022-12-11T14:09:44;2.50;53.00
18287;DHT22;9269;50.838;12.094;2022-12-11T14:12:19;2.30;53.20
18287;DHT22;9269;50.838;12.094;2022-12-11T14:14:50;2.50;53.10
18287;DHT22;9269;50.838;12.094;2022-12-11T14:17:23;2.50;53.20
18287;DHT22;9269;50.838;12.094;2022-12-11T14:19:53;2.50;53.10
18287;DHT22;9269;50.838;12.094;2022-12-11T14:22:26;2.40;52.90
18287;DHT22;9269;50.838;12.094;2022-12-11T14:24:57;2.40;53.10
18287;DHT22;9269;50.838;12.094;2022-12-11T14:27:26;2.30;53.20
18287;DHT22;9269;50.838;12.094;2022-12-11T14:29:54;2.50;52.90
18287;DHT22;9269;50.838;12.094;2022-12-11T14:32:29;2.40;52.70
18287;DHT22;9269;50.838;12.094;2022-12-11T14:35:02;2.40;52.70
18287;DHT22;9269;50.838;12.094;2022-12-11T14:37:33;2.40;53.10
18287;DHT22;9269;50.838;12.094;2022-12-11T14:40:07;2.50;52.90
18287;DHT22;9269;50.838;12.094;2022-12-11T14:42:41;2.50;52.70
18287;DHT22;9269;50.838;12.094;2022-12-11T14:45:17;2.50;52.70
18287;DHT22;9269;50.838;12.094;2022-12-11T14:47:47;2.40;52.70
18287;DHT22;9269;50.838;12.094;2022-12-11T14:50:19;2.40;52.90
18287;DHT22;9269;50.838;12.094;2022-12-11T14:52:53;2.60;52.80
18287;DHT22;9269;50.838;12.094;2022-12-11T14:55:25;2.50;52.60
18287;DHT22;9269;50.838;12.094;2022-12-11T14:57:57;2.50;52.80
18287;DHT22;9269;50.838;12.094;2022-12-11T15:00:29;2.40;52.60
18287;DHT22;9269;50.838;12.094;2022-12-11T15:03:00;2.30;52.80
18287;DHT22;9269;50.838;12.094;2022-12-11T15:05:30;2.30;52.80
18287;DHT22;9269;50.838;12.094;2022-12-11T15:08:19;2.40;52.50
18287;DHT22;9269;50.838;12.094;2022-12-11T15:11:09;2.30;52.60
18287;DHT22;9269;50.838;12.094;2022-12-11T15:13:48;2.30;52.80
18287;DHT22;9269;50.838;12.094;2022-12-11T15:16:19;2.10;52.90
18287;DHT22;9269;50.838;12.094;2022-12-11T15:18:50;2.30;52.70
18287;DHT22;9269;50.838;12.094;2022-12-11T15:21:27;2.50;52.60
18287;DHT22;9269;50.838;12.094;2022-12-11T15:23:59;2.40;53.00
18287;DHT22;9269;50.838;12.094;2022-12-11T15:26:34;2.40;52.70
18287;DHT22;9269;50.838;12.094;2022-12-11T15:29:05;2.30;52.80
18287;DHT22;9269;50.838;12.094;2022-12-11T15:31:34;2.20;53.00
18287;DHT22;9269;50.838;12.094;2022-12-11T15:34:02;2.40;53.00
18287;DHT22;9269;50.838;12.094;2022-12-11T15:36:33;2.10;53.10
18287;DHT22;9269;50.838;12.094;2022-12-11T15:39:04;2.20;53.10
18287;DHT22;9269;50.838;12.094;2022-12-11T15:41:34;2.20;52.90
18287;DHT22;9269;50.838;12.094;2022-12-11T15:44:04;2.10;52.80
18287;DHT22;9269;50.838;12.094;2022-12-11T15:46:35;2.10;52.80
18287;DHT22;9269;50.838;12.094;2022-12-11T15:49:08;2.40;52.80
18287;DHT22;9269;50.838;12.094;2022-12-11T15:51:39;2.20;52.80
18287;DHT22;9269;50.838;12.094;2022-12-11T15:54:10;2.20;53.10
18287;DHT22;9269;50.838;12.094;2022-12-11T15:56:40;2.30;52.90
18287;DHT22;9269;50.838;12.094;2022-12-11T15:59:09;2.30;52.90
18287;DHT22;9269;50.838;12.094;2022-12-11T16:01:38;2.40;52.60
18287;DHT22;9269;50.838;12.094;2022-12-11T16:04:07;2.30;53.00
18287;DHT22;9269;50.838;12.094;2022-12-11T16:06:35;2.20;52.50
18287;DHT22;9269;50.838;12.094;2022-12-11T16:09:04;2.20;52.60
18287;DHT22;9269;50.838;12.094;2022-12-11T16:11:34;2.30;52.80
18287;DHT22;9269;50.838;12.094;2022-12-11T16:14:04;2.30;52.90
18287;DHT22;9269;50.838;12.094;2022-12-11T16:16:33;2.10;52.50
18287;DHT22;9269;50.838;12.094;2022-12-11T16:19:01;2.10;52.70
18287;DHT22;9269;50.838;12.094;2022-12-11T16:21:29;2.10;52.90
18287;DHT22;9269;50.838;12.094;2022-12-11T16:23:58;2.10;52.60
18287;DHT22;9269;50.838;12.094;2022-12-11T16:26:26;2.00;53.00